< < Back
Terminal Aerodrome Forecast


Current Version              Previous Versions:   1  2  3  4  5  6  7  8  9  

Terminal Aerodrome Forecast

886
FTUS42 KFFC 281302 AAA
TAFPDK
TAF AMD
KPDK 281302Z 2813/2912 08005KT 5SM BR OVC005
     FM281500 08006KT P6SM SCT010 BKN020
     FM281700 10008KT P6SM SCT035
     FM290000 12003KT P6SM FEW040 BKN250
     FM290900 10006KT P6SM BKN010 BKN025=

Latest METAR

905
SAUS70 KWBC 281356
MTRPDK
METAR KPDK 281353Z VRB04KT 5SM BR OVC007 22/21 A3017 RMK AO2 SLP202
T02170206


USA.gov is the U.S. government's official web portal to all federal, state and local government web resources and services.